Grainfield, Kansas
Current Conditions -  °F | °C
As of 11:55 AM on Wednesday 28 Jan 2015 (Local Time) from KCBK Reporting Station
Clear Clear  
Wind Chill: 61°   Ceiling: Unl
Heat Index: 61°   Visibility: 10mi
Dew Point: 36°   Wind: 24mph
Humidity: 39%   Direction: 310°NW
Pressure: 29.93"   Gusts: 30mph
Location:  39.11°N, 100.47°W
Report Text: KCBK 281755Z AUTO 31021G26KT 10SM CLR 16/02 A2993 RMK AO2
Loading
Personal Weather Stations






























Interactive Weather Map New forecast layout! Learn more

10-Day Weather Forecast

Advertisements
Track Severe Weather on mobile